sensor_id;sensor_type;location;lat;lon;timestamp;P1;durP1;ratioP1;P2;durP2;ratioP2
51636;SDS011;37713;53.254;6.460;2024-01-27T00:01:33;23.65;;;3.50;;
51636;SDS011;37713;53.254;6.460;2024-01-27T00:03:59;27.00;;;3.67;;
51636;SDS011;37713;53.254;6.460;2024-01-27T00:06:25;29.73;;;4.20;;
51636;SDS011;37713;53.254;6.460;2024-01-27T00:08:51;24.92;;;3.60;;
51636;SDS011;37713;53.254;6.460;2024-01-27T00:11:17;26.58;;;3.38;;
51636;SDS011;37713;53.254;6.460;2024-01-27T00:13:43;25.92;;;3.70;;
51636;SDS011;37713;53.254;6.460;2024-01-27T00:16:09;25.67;;;4.03;;
51636;SDS011;37713;53.254;6.460;2024-01-27T00:18:36;23.35;;;3.83;;
51636;SDS011;37713;53.254;6.460;2024-01-27T00:21:03;24.60;;;3.20;;
51636;SDS011;37713;53.254;6.460;2024-01-27T00:23:29;32.55;;;4.10;;
51636;SDS011;37713;53.254;6.460;2024-01-27T00:25:55;26.50;;;3.53;;
51636;SDS011;37713;53.254;6.460;2024-01-27T00:28:21;26.52;;;3.45;;
51636;SDS011;37713;53.254;6.460;2024-01-27T00:30:46;26.55;;;4.18;;
51636;SDS011;37713;53.254;6.460;2024-01-27T00:33:12;26.73;;;3.60;;
51636;SDS011;37713;53.254;6.460;2024-01-27T00:35:38;19.63;;;2.97;;
51636;SDS011;37713;53.254;6.460;2024-01-27T00:38:04;23.55;;;3.53;;
51636;SDS011;37713;53.254;6.460;2024-01-27T00:40:30;24.48;;;3.53;;
51636;SDS011;37713;53.254;6.460;2024-01-27T00:42:55;25.27;;;3.83;;
51636;SDS011;37713;53.254;6.460;2024-01-27T00:45:21;24.45;;;3.40;;
51636;SDS011;37713;53.254;6.460;2024-01-27T00:47:49;30.60;;;4.45;;
51636;SDS011;37713;53.254;6.460;2024-01-27T00:50:15;22.05;;;4.30;;
51636;SDS011;37713;53.254;6.460;2024-01-27T00:52:41;23.75;;;3.20;;
51636;SDS011;37713;53.254;6.460;2024-01-27T00:55:07;26.05;;;3.55;;
51636;SDS011;37713;53.254;6.460;2024-01-27T00:57:33;24.35;;;4.47;;
51636;SDS011;37713;53.254;6.460;2024-01-27T01:00:01;32.00;;;4.50;;
51636;SDS011;37713;53.254;6.460;2024-01-27T01:02:27;19.75;;;3.55;;
51636;SDS011;37713;53.254;6.460;2024-01-27T01:04:54;16.13;;;2.55;;
51636;SDS011;37713;53.254;6.460;2024-01-27T01:07:19;28.77;;;3.55;;
51636;SDS011;37713;53.254;6.460;2024-01-27T01:09:45;26.90;;;2.80;;
51636;SDS011;37713;53.254;6.460;2024-01-27T01:12:11;18.67;;;3.00;;
51636;SDS011;37713;53.254;6.460;2024-01-27T01:14:37;30.23;;;3.75;;
51636;SDS011;37713;53.254;6.460;2024-01-27T01:17:03;22.40;;;2.83;;
51636;SDS011;37713;53.254;6.460;2024-01-27T01:19:30;23.48;;;3.83;;
51636;SDS011;37713;53.254;6.460;2024-01-27T01:21:55;26.23;;;3.63;;
51636;SDS011;37713;53.254;6.460;2024-01-27T01:24:21;18.27;;;3.25;;
51636;SDS011;37713;53.254;6.460;2024-01-27T01:26:47;24.05;;;3.72;;
51636;SDS011;37713;53.254;6.460;2024-01-27T01:29:13;20.42;;;3.00;;
51636;SDS011;37713;53.254;6.460;2024-01-27T01:31:41;25.45;;;3.55;;
51636;SDS011;37713;53.254;6.460;2024-01-27T01:34:07;23.90;;;3.00;;
51636;SDS011;37713;53.254;6.460;2024-01-27T01:36:33;24.75;;;3.55;;
51636;SDS011;37713;53.254;6.460;2024-01-27T01:38:59;29.70;;;3.72;;
51636;SDS011;37713;53.254;6.460;2024-01-27T01:41:25;19.67;;;4.28;;
51636;SDS011;37713;53.254;6.460;2024-01-27T01:43:51;26.45;;;3.45;;
51636;SDS011;37713;53.254;6.460;2024-01-27T01:46:17;23.50;;;3.08;;
51636;SDS011;37713;53.254;6.460;2024-01-27T01:48:43;20.05;;;2.75;;
51636;SDS011;37713;53.254;6.460;2024-01-27T01:51:09;26.75;;;3.35;;
51636;SDS011;37713;53.254;6.460;2024-01-27T01:53:36;21.90;;;3.00;;
51636;SDS011;37713;53.254;6.460;2024-01-27T01:56:02;24.52;;;3.63;;
51636;SDS011;37713;53.254;6.460;2024-01-27T01:58:29;25.90;;;3.10;;
51636;SDS011;37713;53.254;6.460;2024-01-27T02:00:59;22.15;;;3.40;;
51636;SDS011;37713;53.254;6.460;2024-01-27T02:03:26;22.83;;;2.60;;
51636;SDS011;37713;53.254;6.460;2024-01-27T02:05:52;21.65;;;3.42;;
51636;SDS011;37713;53.254;6.460;2024-01-27T02:08:36;22.27;;;3.28;;
51636;SDS011;37713;53.254;6.460;2024-01-27T02:11:02;20.33;;;3.10;;
51636;SDS011;37713;53.254;6.460;2024-01-27T02:13:28;20.10;;;3.03;;
51636;SDS011;37713;53.254;6.460;2024-01-27T02:15:54;27.33;;;3.90;;
51636;SDS011;37713;53.254;6.460;2024-01-27T02:18:19;27.15;;;3.72;;
51636;SDS011;37713;53.254;6.460;2024-01-27T02:20:46;19.85;;;2.92;;
51636;SDS011;37713;53.254;6.460;2024-01-27T02:23:11;24.10;;;3.58;;
51636;SDS011;37713;53.254;6.460;2024-01-27T02:25:37;22.40;;;2.97;;
51636;SDS011;37713;53.254;6.460;2024-01-27T02:28:03;21.95;;;3.50;;
51636;SDS011;37713;53.254;6.460;2024-01-27T02:30:29;24.00;;;4.72;;
51636;SDS011;37713;53.254;6.460;2024-01-27T02:32:55;22.10;;;3.05;;
51636;SDS011;37713;53.254;6.460;2024-01-27T02:35:23;21.50;;;4.00;;
51636;SDS011;37713;53.254;6.460;2024-01-27T02:37:49;22.35;;;3.83;;
51636;SDS011;37713;53.254;6.460;2024-01-27T02:40:15;22.05;;;3.63;;
51636;SDS011;37713;53.254;6.460;2024-01-27T02:42:41;32.65;;;3.83;;
51636;SDS011;37713;53.254;6.460;2024-01-27T02:45:08;21.73;;;2.72;;
51636;SDS011;37713;53.254;6.460;2024-01-27T02:47:34;17.67;;;3.17;;
51636;SDS011;37713;53.254;6.460;2024-01-27T02:50:00;22.58;;;3.33;;
51636;SDS011;37713;53.254;6.460;2024-01-27T02:52:26;22.00;;;3.30;;
51636;SDS011;37713;53.254;6.460;2024-01-27T02:54:52;16.33;;;3.10;;
51636;SDS011;37713;53.254;6.460;2024-01-27T02:57:18;22.23;;;3.13;;
51636;SDS011;37713;53.254;6.460;2024-01-27T02:59:48;20.45;;;3.17;;
51636;SDS011;37713;53.254;6.460;2024-01-27T03:02:14;25.60;;;3.20;;
51636;SDS011;37713;53.254;6.460;2024-01-27T03:04:40;27.42;;;3.00;;
51636;SDS011;37713;53.254;6.460;2024-01-27T03:07:06;19.90;;;2.90;;
51636;SDS011;37713;53.254;6.460;2024-01-27T03:09:32;22.95;;;3.55;;
51636;SDS011;37713;53.254;6.460;2024-01-27T03:11:58;22.30;;;3.08;;
51636;SDS011;37713;53.254;6.460;2024-01-27T03:14:24;31.52;;;3.67;;
51636;SDS011;37713;53.254;6.460;2024-01-27T03:16:50;21.02;;;2.95;;
51636;SDS011;37713;53.254;6.460;2024-01-27T03:19:16;23.67;;;2.85;;
51636;SDS011;37713;53.254;6.460;2024-01-27T03:21:42;21.35;;;3.50;;
51636;SDS011;37713;53.254;6.460;2024-01-27T03:24:07;19.33;;;2.60;;
51636;SDS011;37713;53.254;6.460;2024-01-27T03:26:33;21.05;;;2.78;;
51636;SDS011;37713;53.254;6.460;2024-01-27T03:28:59;25.15;;;2.72;;
51636;SDS011;37713;53.254;6.460;2024-01-27T03:31:31;20.88;;;2.47;;
51636;SDS011;37713;53.254;6.460;2024-01-27T03:33:58;27.42;;;3.15;;
51636;SDS011;37713;53.254;6.460;2024-01-27T03:36:24;24.52;;;3.10;;
51636;SDS011;37713;53.254;6.460;2024-01-27T03:38:50;25.85;;;3.00;;
51636;SDS011;37713;53.254;6.460;2024-01-27T03:41:16;31.35;;;3.85;;
51636;SDS011;37713;53.254;6.460;2024-01-27T03:43:41;25.85;;;3.45;;
51636;SDS011;37713;53.254;6.460;2024-01-27T03:46:07;22.50;;;2.92;;
51636;SDS011;37713;53.254;6.460;2024-01-27T03:48:33;24.58;;;3.60;;
51636;SDS011;37713;53.254;6.460;2024-01-27T03:51:02;21.83;;;3.35;;
51636;SDS011;37713;53.254;6.460;2024-01-27T03:53:28;21.25;;;2.83;;
51636;SDS011;37713;53.254;6.460;2024-01-27T03:55:53;26.77;;;3.80;;
51636;SDS011;37713;53.254;6.460;2024-01-27T03:58:19;14.25;;;2.90;;
51636;SDS011;37713;53.254;6.460;2024-01-27T04:00:45;17.50;;;2.42;;
51636;SDS011;37713;53.254;6.460;2024-01-27T04:03:11;17.95;;;3.60;;
51636;SDS011;37713;53.254;6.460;2024-01-27T04:05:37;22.25;;;3.25;;
51636;SDS011;37713;53.254;6.460;2024-01-27T04:08:04;20.50;;;3.10;;
51636;SDS011;37713;53.254;6.460;2024-01-27T04:10:31;25.35;;;2.97;;
51636;SDS011;37713;53.254;6.460;2024-01-27T04:12:57;25.30;;;3.08;;
51636;SDS011;37713;53.254;6.460;2024-01-27T04:15:22;21.80;;;2.63;;
51636;SDS011;37713;53.254;6.460;2024-01-27T04:17:48;22.10;;;2.80;;
51636;SDS011;37713;53.254;6.460;2024-01-27T04:20:14;18.83;;;2.90;;
51636;SDS011;37713;53.254;6.460;2024-01-27T04:22:40;22.15;;;3.28;;
51636;SDS011;37713;53.254;6.460;2024-01-27T04:25:06;18.85;;;2.70;;
51636;SDS011;37713;53.254;6.460;2024-01-27T04:27:36;21.08;;;2.92;;
51636;SDS011;37713;53.254;6.460;2024-01-27T04:30:03;25.13;;;3.75;;
51636;SDS011;37713;53.254;6.460;2024-01-27T04:32:30;23.48;;;2.47;;
51636;SDS011;37713;53.254;6.460;2024-01-27T04:34:56;20.40;;;3.53;;
51636;SDS011;37713;53.254;6.460;2024-01-27T04:37:21;25.67;;;3.03;;
51636;SDS011;37713;53.254;6.460;2024-01-27T04:39:47;24.15;;;3.28;;
51636;SDS011;37713;53.254;6.460;2024-01-27T04:42:13;15.90;;;2.55;;
51636;SDS011;37713;53.254;6.460;2024-01-27T04:44:42;22.77;;;3.20;;
51636;SDS011;37713;53.254;6.460;2024-01-27T04:47:08;22.17;;;2.60;;
51636;SDS011;37713;53.254;6.460;2024-01-27T04:49:33;19.85;;;2.38;;
51636;SDS011;37713;53.254;6.460;2024-01-27T04:51:59;19.65;;;3.00;;
51636;SDS011;37713;53.254;6.460;2024-01-27T04:54:25;20.25;;;3.05;;
51636;SDS011;37713;53.254;6.460;2024-01-27T04:56:51;20.80;;;2.47;;
51636;SDS011;37713;53.254;6.460;2024-01-27T04:59:17;20.77;;;2.95;;
51636;SDS011;37713;53.254;6.460;2024-01-27T05:01:46;25.95;;;3.72;;
51636;SDS011;37713;53.254;6.460;2024-01-27T05:04:12;20.38;;;3.13;;
51636;SDS011;37713;53.254;6.460;2024-01-27T05:06:38;16.67;;;2.40;;
51636;SDS011;37713;53.254;6.460;2024-01-27T05:09:08;19.50;;;3.42;;
51636;SDS011;37713;53.254;6.460;2024-01-27T05:11:34;22.75;;;3.08;;
51636;SDS011;37713;53.254;6.460;2024-01-27T05:14:00;19.17;;;3.38;;
51636;SDS011;37713;53.254;6.460;2024-01-27T05:16:26;19.30;;;2.22;;
51636;SDS011;37713;53.254;6.460;2024-01-27T05:18:52;16.95;;;2.65;;
51636;SDS011;37713;53.254;6.460;2024-01-27T05:21:19;24.52;;;3.88;;
51636;SDS011;37713;53.254;6.460;2024-01-27T05:23:45;24.77;;;3.80;;
51636;SDS011;37713;53.254;6.460;2024-01-27T05:26:10;22.10;;;2.95;;
51636;SDS011;37713;53.254;6.460;2024-01-27T05:28:37;26.20;;;3.22;;
51636;SDS011;37713;53.254;6.460;2024-01-27T05:31:06;18.77;;;2.80;;
51636;SDS011;37713;53.254;6.460;2024-01-27T05:33:33;18.13;;;3.22;;
51636;SDS011;37713;53.254;6.460;2024-01-27T05:35:59;23.88;;;3.58;;
51636;SDS011;37713;53.254;6.460;2024-01-27T05:38:25;23.35;;;2.90;;
51636;SDS011;37713;53.254;6.460;2024-01-27T05:40:51;18.40;;;3.30;;
51636;SDS011;37713;53.254;6.460;2024-01-27T05:43:17;27.75;;;3.38;;
51636;SDS011;37713;53.254;6.460;2024-01-27T05:45:43;18.83;;;3.15;;
51636;SDS011;37713;53.254;6.460;2024-01-27T05:48:10;18.50;;;2.90;;
51636;SDS011;37713;53.254;6.460;2024-01-27T05:50:36;23.38;;;3.40;;
51636;SDS011;37713;53.254;6.460;2024-01-27T05:53:02;17.15;;;2.63;;
51636;SDS011;37713;53.254;6.460;2024-01-27T05:55:28;23.77;;;3.40;;
51636;SDS011;37713;53.254;6.460;2024-01-27T05:57:54;26.63;;;3.38;;
51636;SDS011;37713;53.254;6.460;2024-01-27T06:00:21;16.35;;;2.83;;
51636;SDS011;37713;53.254;6.460;2024-01-27T06:02:48;17.25;;;2.88;;
51636;SDS011;37713;53.254;6.460;2024-01-27T06:05:14;18.58;;;3.25;;
51636;SDS011;37713;53.254;6.460;2024-01-27T06:07:40;19.70;;;3.30;;
51636;SDS011;37713;53.254;6.460;2024-01-27T06:10:08;14.60;;;3.25;;
51636;SDS011;37713;53.254;6.460;2024-01-27T06:12:34;29.77;;;5.85;;
51636;SDS011;37713;53.254;6.460;2024-01-27T06:15:01;39.90;;;11.85;;
51636;SDS011;37713;53.254;6.460;2024-01-27T06:17:28;23.55;;;4.15;;
51636;SDS011;37713;53.254;6.460;2024-01-27T06:19:53;27.58;;;3.50;;
51636;SDS011;37713;53.254;6.460;2024-01-27T06:22:19;18.83;;;3.20;;
51636;SDS011;37713;53.254;6.460;2024-01-27T06:24:45;16.95;;;3.58;;
51636;SDS011;37713;53.254;6.460;2024-01-27T06:27:11;21.15;;;3.03;;
51636;SDS011;37713;53.254;6.460;2024-01-27T06:29:37;23.08;;;3.42;;
51636;SDS011;37713;53.254;6.460;2024-01-27T06:32:03;21.20;;;2.80;;
51636;SDS011;37713;53.254;6.460;2024-01-27T06:34:29;22.17;;;2.80;;
51636;SDS011;37713;53.254;6.460;2024-01-27T06:36:56;19.08;;;3.22;;
51636;SDS011;37713;53.254;6.460;2024-01-27T06:39:22;20.42;;;3.70;;
51636;SDS011;37713;53.254;6.460;2024-01-27T06:41:48;21.08;;;3.03;;
51636;SDS011;37713;53.254;6.460;2024-01-27T06:44:14;22.25;;;3.78;;
51636;SDS011;37713;53.254;6.460;2024-01-27T06:46:40;22.15;;;3.08;;
51636;SDS011;37713;53.254;6.460;2024-01-27T06:49:06;12.80;;;2.65;;
51636;SDS011;37713;53.254;6.460;2024-01-27T06:51:31;23.40;;;3.00;;
51636;SDS011;37713;53.254;6.460;2024-01-27T06:53:57;18.48;;;3.70;;
51636;SDS011;37713;53.254;6.460;2024-01-27T06:56:23;18.17;;;3.03;;
51636;SDS011;37713;53.254;6.460;2024-01-27T06:58:49;21.85;;;3.25;;
51636;SDS011;37713;53.254;6.460;2024-01-27T07:01:14;17.52;;;3.03;;
51636;SDS011;37713;53.254;6.460;2024-01-27T07:03:40;21.98;;;5.22;;
51636;SDS011;37713;53.254;6.460;2024-01-27T07:06:06;18.42;;;2.97;;
51636;SDS011;37713;53.254;6.460;2024-01-27T07:08:32;22.65;;;3.50;;
51636;SDS011;37713;53.254;6.460;2024-01-27T07:10:58;20.10;;;3.20;;
51636;SDS011;37713;53.254;6.460;2024-01-27T07:13:24;15.48;;;2.60;;
51636;SDS011;37713;53.254;6.460;2024-01-27T07:15:51;23.15;;;3.47;;
51636;SDS011;37713;53.254;6.460;2024-01-27T07:18:17;23.92;;;2.85;;
51636;SDS011;37713;53.254;6.460;2024-01-27T07:20:44;26.02;;;3.80;;
51636;SDS011;37713;53.254;6.460;2024-01-27T07:23:10;22.90;;;3.58;;
51636;SDS011;37713;53.254;6.460;2024-01-27T07:25:36;17.13;;;3.40;;
51636;SDS011;37713;53.254;6.460;2024-01-27T07:28:02;26.67;;;3.33;;
51636;SDS011;37713;53.254;6.460;2024-01-27T07:30:28;19.27;;;3.25;;
51636;SDS011;37713;53.254;6.460;2024-01-27T07:32:55;24.65;;;4.32;;
51636;SDS011;37713;53.254;6.460;2024-01-27T07:35:20;26.90;;;4.15;;
51636;SDS011;37713;53.254;6.460;2024-01-27T07:37:46;22.45;;;3.42;;
51636;SDS011;37713;53.254;6.460;2024-01-27T07:40:12;19.10;;;3.45;;
51636;SDS011;37713;53.254;6.460;2024-01-27T07:42:38;24.15;;;3.80;;
51636;SDS011;37713;53.254;6.460;2024-01-27T07:45:04;16.13;;;3.33;;
51636;SDS011;37713;53.254;6.460;2024-01-27T07:47:30;18.55;;;3.42;;
51636;SDS011;37713;53.254;6.460;2024-01-27T07:49:56;17.50;;;3.60;;
51636;SDS011;37713;53.254;6.460;2024-01-27T07:52:22;28.85;;;4.15;;
51636;SDS011;37713;53.254;6.460;2024-01-27T07:54:48;25.15;;;3.72;;
51636;SDS011;37713;53.254;6.460;2024-01-27T07:57:14;23.95;;;3.88;;
51636;SDS011;37713;53.254;6.460;2024-01-27T07:59:39;24.90;;;3.60;;
51636;SDS011;37713;53.254;6.460;2024-01-27T08:02:05;25.40;;;3.80;;
51636;SDS011;37713;53.254;6.460;2024-01-27T08:04:31;22.73;;;4.35;;
51636;SDS011;37713;53.254;6.460;2024-01-27T08:06:57;26.17;;;4.38;;
51636;SDS011;37713;53.254;6.460;2024-01-27T08:09:23;27.75;;;5.40;;
51636;SDS011;37713;53.254;6.460;2024-01-27T08:11:50;25.02;;;4.15;;
51636;SDS011;37713;53.254;6.460;2024-01-27T08:14:17;24.02;;;3.35;;
51636;SDS011;37713;53.254;6.460;2024-01-27T08:16:43;25.92;;;4.13;;
51636;SDS011;37713;53.254;6.460;2024-01-27T08:19:09;21.58;;;3.08;;
51636;SDS011;37713;53.254;6.460;2024-01-27T08:21:35;20.80;;;3.80;;
51636;SDS011;37713;53.254;6.460;2024-01-27T08:24:01;24.60;;;4.00;;
51636;SDS011;37713;53.254;6.460;2024-01-27T08:26:27;24.02;;;3.55;;
51636;SDS011;37713;53.254;6.460;2024-01-27T08:28:53;28.10;;;4.00;;
51636;SDS011;37713;53.254;6.460;2024-01-27T08:31:21;24.23;;;4.15;;
51636;SDS011;37713;53.254;6.460;2024-01-27T08:33:47;22.70;;;4.75;;
51636;SDS011;37713;53.254;6.460;2024-01-27T08:36:13;27.25;;;4.03;;
51636;SDS011;37713;53.254;6.460;2024-01-27T08:38:40;28.42;;;5.15;;
51636;SDS011;37713;53.254;6.460;2024-01-27T08:41:05;24.13;;;4.70;;
51636;SDS011;37713;53.254;6.460;2024-01-27T08:43:31;31.63;;;5.00;;
51636;SDS011;37713;53.254;6.460;2024-01-27T08:45:57;25.52;;;5.22;;
51636;SDS011;37713;53.254;6.460;2024-01-27T08:48:25;27.00;;;4.60;;
51636;SDS011;37713;53.254;6.460;2024-01-27T08:50:51;28.95;;;5.30;;
51636;SDS011;37713;53.254;6.460;2024-01-27T08:53:17;28.30;;;5.30;;
51636;SDS011;37713;53.254;6.460;2024-01-27T08:55:42;25.67;;;5.32;;
51636;SDS011;37713;53.254;6.460;2024-01-27T08:58:08;26.25;;;4.50;;
51636;SDS011;37713;53.254;6.460;2024-01-27T09:00:34;33.08;;;4.80;;
51636;SDS011;37713;53.254;6.460;2024-01-27T09:03:00;22.83;;;4.90;;
51636;SDS011;37713;53.254;6.460;2024-01-27T09:05:26;24.10;;;4.45;;
51636;SDS011;37713;53.254;6.460;2024-01-27T09:07:53;23.90;;;5.38;;
51636;SDS011;37713;53.254;6.460;2024-01-27T09:10:18;29.40;;;5.72;;
51636;SDS011;37713;53.254;6.460;2024-01-27T09:12:44;26.58;;;6.07;;
51636;SDS011;37713;53.254;6.460;2024-01-27T09:15:10;26.67;;;5.32;;
51636;SDS011;37713;53.254;6.460;2024-01-27T09:17:36;28.77;;;6.03;;
51636;SDS011;37713;53.254;6.460;2024-01-27T09:20:02;28.80;;;8.48;;
51636;SDS011;37713;53.254;6.460;2024-01-27T09:22:28;29.05;;;6.32;;
51636;SDS011;37713;53.254;6.460;2024-01-27T09:24:54;33.70;;;7.13;;
51636;SDS011;37713;53.254;6.460;2024-01-27T09:27:20;30.63;;;6.38;;
51636;SDS011;37713;53.254;6.460;2024-01-27T09:29:46;28.92;;;6.60;;
51636;SDS011;37713;53.254;6.460;2024-01-27T09:32:12;24.55;;;5.78;;
51636;SDS011;37713;53.254;6.460;2024-01-27T09:34:38;27.35;;;6.30;;
51636;SDS011;37713;53.254;6.460;2024-01-27T09:37:04;31.63;;;6.45;;
51636;SDS011;37713;53.254;6.460;2024-01-27T09:39:30;30.40;;;6.80;;
51636;SDS011;37713;53.254;6.460;2024-01-27T09:41:56;32.17;;;6.72;;
51636;SDS011;37713;53.254;6.460;2024-01-27T09:44:23;37.72;;;7.40;;
51636;SDS011;37713;53.254;6.460;2024-01-27T09:46:50;27.85;;;8.40;;
51636;SDS011;37713;53.254;6.460;2024-01-27T09:49:16;24.15;;;6.30;;
51636;SDS011;37713;53.254;6.460;2024-01-27T09:51:42;27.42;;;6.75;;
51636;SDS011;37713;53.254;6.460;2024-01-27T09:54:08;27.83;;;6.55;;
51636;SDS011;37713;53.254;6.460;2024-01-27T09:56:34;34.85;;;8.52;;
51636;SDS011;37713;53.254;6.460;2024-01-27T09:59:00;24.65;;;7.30;;
51636;SDS011;37713;53.254;6.460;2024-01-27T10:01:26;31.10;;;7.57;;
51636;SDS011;37713;53.254;6.460;2024-01-27T10:03:54;30.15;;;7.88;;
51636;SDS011;37713;53.254;6.460;2024-01-27T10:06:20;28.73;;;7.60;;
51636;SDS011;37713;53.254;6.460;2024-01-27T10:08:51;26.15;;;8.25;;
51636;SDS011;37713;53.254;6.460;2024-01-27T10:11:18;26.50;;;8.13;;
51636;SDS011;37713;53.254;6.460;2024-01-27T10:13:53;32.65;;;8.05;;
51636;SDS011;37713;53.254;6.460;2024-01-27T10:16:21;31.38;;;8.13;;
51636;SDS011;37713;53.254;6.460;2024-01-27T10:18:46;26.27;;;7.82;;
51636;SDS011;37713;53.254;6.460;2024-01-27T10:21:15;33.42;;;8.35;;
51636;SDS011;37713;53.254;6.460;2024-01-27T10:23:43;30.58;;;7.47;;
51636;SDS011;37713;53.254;6.460;2024-01-27T10:26:09;27.85;;;8.40;;
51636;SDS011;37713;53.254;6.460;2024-01-27T10:28:36;26.55;;;7.57;;
51636;SDS011;37713;53.254;6.460;2024-01-27T10:31:11;30.95;;;8.38;;
51636;SDS011;37713;53.254;6.460;2024-01-27T10:33:38;26.73;;;8.73;;
51636;SDS011;37713;53.254;6.460;2024-01-27T10:36:04;26.45;;;7.93;;
51636;SDS011;37713;53.254;6.460;2024-01-27T10:38:34;28.40;;;8.10;;
51636;SDS011;37713;53.254;6.460;2024-01-27T10:41:08;31.55;;;8.10;;
51636;SDS011;37713;53.254;6.460;2024-01-27T10:43:38;30.58;;;8.63;;
51636;SDS011;37713;53.254;6.460;2024-01-27T10:46:08;26.75;;;8.43;;
51636;SDS011;37713;53.254;6.460;2024-01-27T10:48:34;31.70;;;8.45;;
51636;SDS011;37713;53.254;6.460;2024-01-27T10:51:03;30.38;;;8.07;;
51636;SDS011;37713;53.254;6.460;2024-01-27T10:53:34;22.88;;;7.60;;
51636;SDS011;37713;53.254;6.460;2024-01-27T10:56:05;27.55;;;7.82;;
51636;SDS011;37713;53.254;6.460;2024-01-27T10:58:34;24.60;;;7.80;;
51636;SDS011;37713;53.254;6.460;2024-01-27T11:01:10;33.30;;;8.40;;
51636;SDS011;37713;53.254;6.460;2024-01-27T11:03:40;27.35;;;7.63;;
51636;SDS011;37713;53.254;6.460;2024-01-27T11:06:06;26.85;;;7.63;;
51636;SDS011;37713;53.254;6.460;2024-01-27T11:08:33;29.30;;;7.45;;
51636;SDS011;37713;53.254;6.460;2024-01-27T11:11:00;28.33;;;8.13;;
51636;SDS011;37713;53.254;6.460;2024-01-27T11:13:30;29.05;;;7.00;;
51636;SDS011;37713;53.254;6.460;2024-01-27T11:15:57;30.05;;;7.93;;
51636;SDS011;37713;53.254;6.460;2024-01-27T11:18:26;29.88;;;6.78;;
51636;SDS011;37713;53.254;6.460;2024-01-27T11:20:55;32.28;;;6.05;;
51636;SDS011;37713;53.254;6.460;2024-01-27T11:23:31;29.75;;;5.60;;
51636;SDS011;37713;53.254;6.460;2024-01-27T11:26:08;28.67;;;5.07;;
51636;SDS011;37713;53.254;6.460;2024-01-27T11:28:34;27.88;;;5.38;;
51636;SDS011;37713;53.254;6.460;2024-01-27T11:31:04;26.55;;;4.95;;
51636;SDS011;37713;53.254;6.460;2024-01-27T11:33:31;21.70;;;3.88;;
51636;SDS011;37713;53.254;6.460;2024-01-27T11:36:04;26.25;;;4.07;;
51636;SDS011;37713;53.254;6.460;2024-01-27T11:38:31;23.65;;;4.65;;
51636;SDS011;37713;53.254;6.460;2024-01-27T11:40:57;21.60;;;3.63;;
51636;SDS011;37713;53.254;6.460;2024-01-27T11:43:27;33.05;;;4.30;;
51636;SDS011;37713;53.254;6.460;2024-01-27T11:45:56;26.25;;;4.85;;
51636;SDS011;37713;53.254;6.460;2024-01-27T11:48:26;18.88;;;3.67;;
51636;SDS011;37713;53.254;6.460;2024-01-27T11:51:08;23.08;;;4.45;;
51636;SDS011;37713;53.254;6.460;2024-01-27T11:53:37;26.05;;;4.18;;
51636;SDS011;37713;53.254;6.460;2024-01-27T11:56:04;23.48;;;4.45;;
51636;SDS011;37713;53.254;6.460;2024-01-27T11:58:30;23.88;;;6.20;;
51636;SDS011;37713;53.254;6.460;2024-01-27T12:00:56;24.73;;;5.35;;
51636;SDS011;37713;53.254;6.460;2024-01-27T12:03:23;24.33;;;4.25;;
51636;SDS011;37713;53.254;6.460;2024-01-27T12:05:53;24.45;;;4.57;;
51636;SDS011;37713;53.254;6.460;2024-01-27T12:08:19;18.30;;;4.53;;
51636;SDS011;37713;53.254;6.460;2024-01-27T12:10:45;21.95;;;4.13;;
51636;SDS011;37713;53.254;6.460;2024-01-27T12:13:11;24.00;;;4.32;;
51636;SDS011;37713;53.254;6.460;2024-01-27T12:15:36;20.67;;;4.22;;
51636;SDS011;37713;53.254;6.460;2024-01-27T12:18:05;24.30;;;4.55;;
51636;SDS011;37713;53.254;6.460;2024-01-27T12:20:31;24.38;;;4.82;;
51636;SDS011;37713;53.254;6.460;2024-01-27T12:23:04;23.45;;;4.38;;
51636;SDS011;37713;53.254;6.460;2024-01-27T12:25:31;26.17;;;4.00;;
51636;SDS011;37713;53.254;6.460;2024-01-27T12:27:56;26.38;;;4.18;;
51636;SDS011;37713;53.254;6.460;2024-01-27T12:30:26;22.13;;;3.88;;
51636;SDS011;37713;53.254;6.460;2024-01-27T12:32:52;27.35;;;4.45;;
51636;SDS011;37713;53.254;6.460;2024-01-27T12:35:18;25.00;;;4.72;;
51636;SDS011;37713;53.254;6.460;2024-01-27T12:37:44;22.67;;;4.35;;
51636;SDS011;37713;53.254;6.460;2024-01-27T12:40:20;26.67;;;3.88;;
51636;SDS011;37713;53.254;6.460;2024-01-27T12:42:47;21.75;;;4.38;;
51636;SDS011;37713;53.254;6.460;2024-01-27T12:45:16;22.45;;;4.18;;
51636;SDS011;37713;53.254;6.460;2024-01-27T12:47:42;22.23;;;3.58;;
51636;SDS011;37713;53.254;6.460;2024-01-27T12:50:08;23.67;;;3.88;;
51636;SDS011;37713;53.254;6.460;2024-01-27T12:52:34;19.52;;;4.68;;
51636;SDS011;37713;53.254;6.460;2024-01-27T12:55:00;21.52;;;4.05;;
51636;SDS011;37713;53.254;6.460;2024-01-27T12:57:26;24.33;;;3.80;;
51636;SDS011;37713;53.254;6.460;2024-01-27T12:59:51;24.25;;;4.03;;
51636;SDS011;37713;53.254;6.460;2024-01-27T13:02:17;21.80;;;4.40;;
51636;SDS011;37713;53.254;6.460;2024-01-27T13:04:43;23.63;;;3.47;;
51636;SDS011;37713;53.254;6.460;2024-01-27T13:07:09;23.63;;;3.80;;
51636;SDS011;37713;53.254;6.460;2024-01-27T13:09:35;20.85;;;4.00;;
51636;SDS011;37713;53.254;6.460;2024-01-27T13:12:02;21.45;;;4.07;;
51636;SDS011;37713;53.254;6.460;2024-01-27T13:14:29;24.50;;;3.90;;
51636;SDS011;37713;53.254;6.460;2024-01-27T13:16:55;22.60;;;4.07;;
51636;SDS011;37713;53.254;6.460;2024-01-27T13:19:22;18.98;;;3.40;;
51636;SDS011;37713;53.254;6.460;2024-01-27T13:21:48;21.45;;;3.42;;
51636;SDS011;37713;53.254;6.460;2024-01-27T13:24:13;23.35;;;4.15;;
51636;SDS011;37713;53.254;6.460;2024-01-27T13:26:39;24.88;;;4.05;;
51636;SDS011;37713;53.254;6.460;2024-01-27T13:29:05;21.95;;;4.15;;
51636;SDS011;37713;53.254;6.460;2024-01-27T13:31:32;22.38;;;3.88;;
51636;SDS011;37713;53.254;6.460;2024-01-27T13:33:58;22.48;;;4.50;;
51636;SDS011;37713;53.254;6.460;2024-01-27T13:36:24;28.35;;;4.68;;
51636;SDS011;37713;53.254;6.460;2024-01-27T13:38:51;22.30;;;4.35;;
51636;SDS011;37713;53.254;6.460;2024-01-27T13:41:20;17.73;;;3.45;;
51636;SDS011;37713;53.254;6.460;2024-01-27T13:43:45;22.90;;;3.55;;
51636;SDS011;37713;53.254;6.460;2024-01-27T13:46:11;23.88;;;4.32;;
51636;SDS011;37713;53.254;6.460;2024-01-27T13:48:37;23.20;;;4.82;;
51636;SDS011;37713;53.254;6.460;2024-01-27T13:51:03;22.45;;;3.72;;
51636;SDS011;37713;53.254;6.460;2024-01-27T13:53:29;20.25;;;3.65;;
51636;SDS011;37713;53.254;6.460;2024-01-27T13:55:55;21.35;;;4.28;;
51636;SDS011;37713;53.254;6.460;2024-01-27T13:58:21;21.88;;;4.32;;
51636;SDS011;37713;53.254;6.460;2024-01-27T14:00:47;21.48;;;4.45;;
51636;SDS011;37713;53.254;6.460;2024-01-27T14:03:13;19.05;;;3.65;;
51636;SDS011;37713;53.254;6.460;2024-01-27T14:05:38;15.50;;;3.33;;
51636;SDS011;37713;53.254;6.460;2024-01-27T14:08:06;20.98;;;4.60;;
51636;SDS011;37713;53.254;6.460;2024-01-27T14:10:33;22.58;;;4.38;;
51636;SDS011;37713;53.254;6.460;2024-01-27T14:13:00;27.70;;;4.25;;
51636;SDS011;37713;53.254;6.460;2024-01-27T14:15:29;18.90;;;3.90;;
51636;SDS011;37713;53.254;6.460;2024-01-27T14:17:55;19.92;;;3.78;;
51636;SDS011;37713;53.254;6.460;2024-01-27T14:20:21;17.85;;;3.63;;
51636;SDS011;37713;53.254;6.460;2024-01-27T14:22:47;24.75;;;3.75;;
51636;SDS011;37713;53.254;6.460;2024-01-27T14:25:13;27.63;;;4.32;;
51636;SDS011;37713;53.254;6.460;2024-01-27T14:27:39;23.75;;;4.18;;
51636;SDS011;37713;53.254;6.460;2024-01-27T14:30:05;25.02;;;4.45;;